createdAt,value
2018-02-09T00:02:13.572Z,-0.14
2018-02-09T00:04:41.110Z,-0.31
2018-02-09T00:07:08.651Z,-0.28
2018-02-09T00:09:36.200Z,-0.39
2018-02-09T00:12:03.815Z,-0.47
2018-02-09T00:14:31.397Z,-0.42
2018-02-09T00:16:59.071Z,-0.23
2018-02-09T00:19:26.591Z,-0.23
2018-02-09T00:21:54.175Z,-0.31
2018-02-09T00:24:21.701Z,-0.40
2018-02-09T00:26:49.297Z,-0.19
2018-02-09T00:29:16.851Z,-0.11
2018-02-09T00:31:44.398Z,-0.12
2018-02-09T00:34:11.911Z,-0.04
2018-02-09T00:36:39.580Z,0.06
2018-02-09T00:39:07.252Z,-0.06
2018-02-09T00:41:34.857Z,-0.19
2018-02-09T00:44:02.396Z,-0.19
2018-02-09T00:46:29.945Z,-0.08
2018-02-09T00:48:57.535Z,-0.03
2018-02-09T00:51:26.025Z,-0.03
2018-02-09T00:53:53.600Z,0.02
2018-02-09T00:56:21.255Z,0.07
2018-02-09T00:58:48.832Z,0.08
2018-02-09T01:01:16.457Z,0.11
2018-02-09T01:03:44.027Z,0.28
2018-02-09T01:06:11.607Z,0.27
2018-02-09T01:08:39.130Z,0.29
2018-02-09T01:11:06.680Z,-0.20
2018-02-09T01:13:34.262Z,-0.46
2018-02-09T01:16:01.835Z,-0.38
2018-02-09T01:18:30.405Z,-0.26
2018-02-09T01:20:58.038Z,-0.16
2018-02-09T01:23:25.631Z,-0.11
2018-02-09T01:25:53.164Z,-0.09
2018-02-09T01:28:20.742Z,-0.25
2018-02-09T01:30:48.826Z,-0.22
2018-02-09T01:33:16.390Z,-0.07
2018-02-09T01:35:43.909Z,0.08
2018-02-09T01:38:11.472Z,0.06
2018-02-09T01:40:39.090Z,-0.13
2018-02-09T01:43:06.797Z,-0.36
2018-02-09T01:45:34.361Z,-0.22
2018-02-09T01:48:01.991Z,-0.13
2018-02-09T01:50:29.630Z,-0.03
2018-02-09T01:52:57.201Z,-0.25
2018-02-09T01:55:24.756Z,-0.18
2018-02-09T01:57:52.279Z,0.03
2018-02-09T02:00:19.986Z,0.03
2018-02-09T02:02:47.524Z,0.06
2018-02-09T02:05:15.120Z,0.19
2018-02-09T02:07:42.641Z,0.18
2018-02-09T02:10:10.235Z,-0.01
2018-02-09T02:12:37.990Z,-0.13
2018-02-09T02:15:05.594Z,-0.06
2018-02-09T02:17:33.177Z,-0.07
2018-02-09T02:20:00.762Z,-0.09
2018-02-09T02:22:28.326Z,-0.05
2018-02-09T02:24:55.985Z,0.07
2018-02-09T02:27:23.506Z,0.26
2018-02-09T02:29:51.037Z,0.18
2018-02-09T02:32:18.577Z,0.12
2018-02-09T02:34:46.100Z,0.17
2018-02-09T02:37:13.781Z,0.27
2018-02-09T02:39:41.820Z,0.25
2018-02-09T02:42:09.410Z,0.26
2018-02-09T02:44:37.011Z,0.22
2018-02-09T02:47:04.581Z,0.30
2018-02-09T02:49:32.104Z,0.27
2018-02-09T02:51:59.642Z,0.21
2018-02-09T02:54:27.160Z,0.11
2018-02-09T02:56:54.657Z,0.15
2018-02-09T02:59:22.220Z,0.19
2018-02-09T03:01:49.732Z,0.11
2018-02-09T03:04:17.336Z,0.16
2018-02-09T03:06:46.159Z,0.00
2018-02-09T03:09:13.695Z,0.20
2018-02-09T03:11:41.452Z,0.20
2018-02-09T03:14:09.009Z,0.43
2018-02-09T03:16:36.587Z,0.37
2018-02-09T03:19:04.197Z,-0.01
2018-02-09T03:21:31.747Z,-0.01
2018-02-09T03:23:59.276Z,0.08
2018-02-09T03:26:26.856Z,0.13
2018-02-09T03:28:54.883Z,0.25
2018-02-09T03:31:22.475Z,0.00
2018-02-09T03:33:50.020Z,0.00
2018-02-09T03:36:17.768Z,-0.11
2018-02-09T03:38:45.327Z,0.07
2018-02-09T03:41:12.871Z,0.10
2018-02-09T03:43:40.410Z,-0.04
2018-02-09T03:46:08.012Z,-0.09
2018-02-09T03:48:35.565Z,-0.17
2018-02-09T03:51:03.160Z,-0.01
2018-02-09T03:53:30.767Z,-0.03
2018-02-09T03:55:58.297Z,-0.15
2018-02-09T03:58:25.822Z,-0.11
2018-02-09T04:00:53.453Z,-0.20
2018-02-09T04:03:20.964Z,-0.29
2018-02-09T04:05:48.514Z,-0.18
2018-02-09T04:08:16.226Z,-0.11
2018-02-09T04:10:43.771Z,0.07
2018-02-09T04:13:11.286Z,0.11
2018-02-09T04:15:38.820Z,0.32
2018-02-09T04:18:06.480Z,0.45
2018-02-09T04:20:34.025Z,0.39
2018-02-09T04:23:01.539Z,0.23
2018-02-09T04:25:29.057Z,0.03
2018-02-09T04:27:56.706Z,-0.08
2018-02-09T04:30:24.297Z,-0.12
2018-02-09T04:32:51.945Z,0.04
2018-02-09T04:35:19.528Z,0.10
2018-02-09T04:37:47.127Z,0.01
2018-02-09T04:40:14.645Z,-0.03
2018-02-09T04:42:42.251Z,-0.14
2018-02-09T04:45:09.782Z,-0.21
2018-02-09T04:47:37.375Z,-0.10
2018-02-09T04:50:04.905Z,0.08
2018-02-09T04:52:32.727Z,0.22
2018-02-09T04:55:00.305Z,0.16
2018-02-09T04:57:27.835Z,0.30
2018-02-09T04:59:55.390Z,0.26
2018-02-09T05:02:23.058Z,0.13
2018-02-09T05:04:50.686Z,0.22
2018-02-09T05:07:18.230Z,0.15
2018-02-09T05:09:45.752Z,0.13
2018-02-09T05:12:13.285Z,0.16
2018-02-09T05:14:40.812Z,0.18
2018-02-09T05:17:08.395Z,0.03
2018-02-09T05:19:36.015Z,0.00
2018-02-09T05:22:03.621Z,0.05
2018-02-09T05:24:31.232Z,-0.05
2018-02-09T05:26:58.750Z,-0.16
2018-02-09T05:29:26.351Z,-0.14
2018-02-09T05:31:53.928Z,-0.04
2018-02-09T05:34:21.502Z,0.08
2018-02-09T05:36:49.230Z,0.16
2018-02-09T05:39:16.730Z,0.25
2018-02-09T05:41:44.345Z,0.06
2018-02-09T05:44:12.078Z,0.15
2018-02-09T05:46:39.775Z,0.18
2018-02-09T05:49:07.291Z,0.20
2018-02-09T05:51:34.846Z,0.24
2018-02-09T05:54:02.480Z,0.30
2018-02-09T05:56:30.076Z,0.35
2018-02-09T05:58:57.692Z,0.36
2018-02-09T06:01:25.273Z,0.22
2018-02-09T06:03:52.869Z,0.31
2018-02-09T06:06:20.411Z,0.48
2018-02-09T06:08:47.961Z,0.35
2018-02-09T06:11:15.499Z,0.44
2018-02-09T06:13:43.155Z,0.24
2018-02-09T06:16:10.715Z,0.32
2018-02-09T06:18:38.246Z,0.29
2018-02-09T06:21:05.766Z,0.27
2018-02-09T06:23:33.340Z,0.32
2018-02-09T06:26:00.913Z,0.33
2018-02-09T06:28:28.449Z,0.42
2018-02-09T06:30:55.970Z,0.36
2018-02-09T06:33:23.564Z,0.34
2018-02-09T06:35:51.146Z,0.39
2018-02-09T06:38:18.687Z,0.24
2018-02-09T06:40:46.282Z,0.25
2018-02-09T06:43:13.820Z,0.38
2018-02-09T06:45:41.412Z,0.38
2018-02-09T06:48:08.960Z,0.35
2018-02-09T06:50:36.597Z,0.48
2018-02-09T06:53:04.261Z,0.56
2018-02-09T06:55:31.787Z,0.47
2018-02-09T06:57:59.350Z,0.41
2018-02-09T07:00:26.872Z,0.42
2018-02-09T07:02:54.520Z,0.09
2018-02-09T07:05:22.150Z,0.11
2018-02-09T07:07:49.773Z,0.19
2018-02-09T07:10:17.317Z,0.33
2018-02-09T07:12:44.900Z,0.35
2018-02-09T07:15:12.506Z,0.40
2018-02-09T07:17:40.035Z,0.55
2018-02-09T07:20:07.561Z,0.55
2018-02-09T07:22:35.101Z,0.58
2018-02-09T07:25:02.637Z,0.61
2018-02-09T07:27:30.178Z,0.66
2018-02-09T07:29:57.875Z,0.49
2018-02-09T07:32:25.413Z,0.49
2018-02-09T07:34:52.955Z,0.52
2018-02-09T07:37:20.506Z,0.51
2018-02-09T07:39:48.166Z,0.75
2018-02-09T07:42:15.857Z,0.70
2018-02-09T07:44:43.407Z,0.82
2018-02-09T07:47:11.004Z,0.91
2018-02-09T07:49:38.553Z,0.93
2018-02-09T07:52:06.207Z,0.84
2018-02-09T07:54:33.725Z,0.82
2018-02-09T07:57:01.272Z,0.70
2018-02-09T07:59:28.820Z,1.18
2018-02-09T08:01:56.573Z,0.97
2018-02-09T08:04:24.122Z,0.95
2018-02-09T08:06:51.681Z,1.15
2018-02-09T08:09:19.307Z,1.00
2018-02-09T08:11:47.072Z,0.94
2018-02-09T08:14:14.651Z,0.95
2018-02-09T08:16:42.185Z,0.89
2018-02-09T08:19:09.826Z,1.12
2018-02-09T08:21:37.343Z,1.33
2018-02-09T08:24:04.950Z,1.37
2018-02-09T08:26:32.570Z,1.39
2018-02-09T08:29:00.125Z,1.24
2018-02-09T08:31:27.646Z,1.33
2018-02-09T08:33:55.167Z,1.23
2018-02-09T08:36:22.688Z,1.23
2018-02-09T08:38:50.301Z,1.37
2018-02-09T08:41:18.045Z,1.18
2018-02-09T08:43:45.612Z,1.40
2018-02-09T08:46:13.185Z,1.20
2018-02-09T08:48:40.775Z,1.08
2018-02-09T08:51:08.285Z,1.25
2018-02-09T08:53:35.891Z,1.31
2018-02-09T08:56:03.496Z,1.29
2018-02-09T08:58:31.111Z,1.12
2018-02-09T09:00:58.725Z,1.16
2018-02-09T09:03:26.386Z,1.39
2018-02-09T09:05:53.916Z,1.16
2018-02-09T09:08:21.472Z,1.09
2018-02-09T09:10:49.765Z,1.25
2018-02-09T09:13:17.435Z,1.29
2018-02-09T09:15:44.977Z,1.16
2018-02-09T09:18:12.612Z,1.24
2018-02-09T09:20:40.208Z,1.34
2018-02-09T09:23:07.755Z,1.18
2018-02-09T09:25:35.311Z,1.56
2018-02-09T09:28:02.867Z,1.41
2018-02-09T09:30:30.427Z,1.45
2018-02-09T09:32:57.959Z,1.50
2018-02-09T09:35:25.522Z,1.69
2018-02-09T09:37:53.095Z,1.66
2018-02-09T09:40:20.686Z,1.77
2018-02-09T09:42:48.238Z,1.55
2018-02-09T09:45:16.252Z,1.65
2018-02-09T09:47:43.781Z,1.94
2018-02-09T09:50:11.441Z,1.70
2018-02-09T09:52:39.047Z,1.99
2018-02-09T09:55:06.592Z,2.05
2018-02-09T09:57:34.147Z,1.96
2018-02-09T10:00:01.738Z,2.04
2018-02-09T10:02:42.322Z,1.84
2018-02-09T10:05:09.902Z,1.97
2018-02-09T10:07:37.440Z,1.65
2018-02-09T10:10:04.975Z,1.82
2018-02-09T10:12:32.505Z,2.11
2018-02-09T10:15:00.131Z,2.00
2018-02-09T10:17:27.753Z,1.63
2018-02-09T10:19:55.300Z,2.02
2018-02-09T10:22:22.846Z,1.88
2018-02-09T10:24:50.497Z,1.86
2018-02-09T10:27:18.028Z,2.21
2018-02-09T10:29:45.602Z,1.87
2018-02-09T10:32:13.152Z,1.87
2018-02-09T10:34:40.712Z,2.12
2018-02-09T10:37:08.376Z,1.96
2018-02-09T10:39:35.902Z,2.24
2018-02-09T10:42:03.427Z,1.96
2018-02-09T10:44:30.951Z,2.30
2018-02-09T10:46:58.636Z,2.71
2018-02-09T10:49:26.179Z,2.73
2018-02-09T10:51:53.711Z,2.64
2018-02-09T10:54:21.256Z,2.59
2018-02-09T10:56:48.900Z,2.16
2018-02-09T10:59:16.516Z,2.49
2018-02-09T11:01:44.238Z,2.69
2018-02-09T11:04:11.794Z,2.44
2018-02-09T11:06:39.321Z,2.67
2018-02-09T11:09:06.848Z,2.42
2018-02-09T11:11:34.476Z,2.79
2018-02-09T11:14:02.086Z,2.59
2018-02-09T11:16:29.646Z,2.27
2018-02-09T11:18:57.197Z,2.59
2018-02-09T11:21:24.861Z,2.42
2018-02-09T11:23:52.396Z,2.61
2018-02-09T11:26:20.082Z,2.57
2018-02-09T11:28:47.710Z,2.58
2018-02-09T11:31:15.343Z,2.71
2018-02-09T11:33:43.000Z,3.00
2018-02-09T11:36:10.539Z,3.19
2018-02-09T11:38:38.116Z,3.00
2018-02-09T11:41:05.641Z,2.80
2018-02-09T11:43:33.187Z,3.16
2018-02-09T11:46:00.723Z,3.47
2018-02-09T11:48:28.311Z,3.48
2018-02-09T11:50:55.837Z,3.51
2018-02-09T11:53:23.387Z,3.21
2018-02-09T11:55:50.906Z,3.52
2018-02-09T11:58:18.608Z,3.52
2018-02-09T12:00:46.147Z,2.70
2018-02-09T12:03:13.691Z,2.70
2018-02-09T12:05:41.230Z,3.06
2018-02-09T12:08:08.790Z,3.48
2018-02-09T12:10:36.352Z,3.14
2018-02-09T12:13:03.907Z,3.27
2018-02-09T12:15:31.508Z,3.49
2018-02-09T12:17:59.364Z,3.67
2018-02-09T12:20:26.953Z,3.96
2018-02-09T12:22:54.481Z,4.00
2018-02-09T12:25:22.078Z,4.41
2018-02-09T12:27:49.726Z,4.84
2018-02-09T12:30:17.286Z,4.99
2018-02-09T12:32:44.847Z,4.67
2018-02-09T12:35:12.713Z,4.93
2018-02-09T12:37:40.271Z,5.25
2018-02-09T12:40:07.838Z,4.30
2018-02-09T12:42:35.495Z,4.63
2018-02-09T12:45:03.032Z,4.35
2018-02-09T12:47:30.600Z,4.98
2018-02-09T12:49:58.238Z,4.48
2018-02-09T12:52:25.792Z,4.11
2018-02-09T12:54:53.591Z,4.24
2018-02-09T12:57:21.157Z,4.71
2018-02-09T12:59:48.813Z,4.54
2018-02-09T13:02:16.376Z,4.43
2018-02-09T13:04:43.910Z,4.37
2018-02-09T13:07:11.508Z,4.55
2018-02-09T13:09:39.132Z,4.35
2018-02-09T13:12:06.707Z,4.19
2018-02-09T13:14:46.100Z,3.70
2018-02-09T13:17:13.671Z,3.89
2018-02-09T13:19:41.221Z,4.28
2018-02-09T13:22:08.940Z,4.47
2018-02-09T13:24:36.557Z,4.26
2018-02-09T13:27:04.121Z,3.93
2018-02-09T13:29:31.657Z,3.78
2018-02-09T13:31:59.200Z,4.12
2018-02-09T13:34:26.758Z,3.93
2018-02-09T13:40:06.506Z,4.32
2018-02-09T13:42:34.023Z,4.17
2018-02-09T13:45:01.635Z,4.21
2018-02-09T13:47:29.435Z,3.86
2018-02-09T13:49:57.038Z,3.79
2018-02-09T13:52:25.807Z,3.55
2018-02-09T13:54:53.357Z,4.05
2018-02-09T13:57:21.090Z,3.62
2018-02-09T13:59:48.671Z,3.72
2018-02-09T14:02:16.246Z,3.68
2018-02-09T14:04:43.795Z,3.69
2018-02-09T14:07:11.334Z,3.61
2018-02-09T14:09:38.913Z,3.90
2018-02-09T14:12:06.435Z,3.71
2018-02-09T14:14:34.001Z,3.48
2018-02-09T14:17:01.536Z,3.57
2018-02-09T14:19:29.100Z,3.47
2018-02-09T14:21:56.626Z,3.36
2018-02-09T14:24:24.155Z,3.02
2018-02-09T14:26:51.670Z,3.00
2018-02-09T14:29:19.194Z,3.03
2018-02-09T14:31:46.746Z,2.95
2018-02-09T14:34:14.286Z,3.17
2018-02-09T14:36:42.051Z,3.14
2018-02-09T14:39:09.560Z,3.03
2018-02-09T14:41:37.620Z,3.07
2018-02-09T14:44:05.188Z,3.04
2018-02-09T14:46:32.708Z,2.91
2018-02-09T14:49:00.248Z,2.90
2018-02-09T14:51:27.841Z,2.92
2018-02-09T14:53:55.397Z,2.91
2018-02-09T14:56:22.952Z,2.87
2018-02-09T14:58:50.738Z,3.12
2018-02-09T15:01:18.259Z,2.93
2018-02-09T15:03:45.893Z,2.92
2018-02-09T15:06:13.422Z,2.94
2018-02-09T15:08:40.986Z,2.82
2018-02-09T15:11:08.512Z,2.76
2018-02-09T15:13:36.047Z,2.77
2018-02-09T15:16:03.592Z,2.59
2018-02-09T15:18:31.122Z,2.73
2018-02-09T15:20:58.787Z,2.69
2018-02-09T15:23:26.326Z,2.73
2018-02-09T15:25:53.871Z,2.66
2018-02-09T15:28:21.411Z,2.56
2018-02-09T15:30:49.427Z,2.70
2018-02-09T15:33:17.248Z,2.55
2018-02-09T15:35:44.966Z,2.50
2018-02-09T15:38:12.506Z,2.47
2018-02-09T15:40:40.083Z,2.63
2018-02-09T15:43:07.683Z,2.63
2018-02-09T15:45:35.218Z,2.38
2018-02-09T15:48:02.822Z,2.48
2018-02-09T15:50:30.388Z,2.52
2018-02-09T15:52:57.985Z,2.61
2018-02-09T15:55:25.565Z,2.65
2018-02-09T15:57:53.157Z,2.80
2018-02-09T16:00:20.791Z,2.44
2018-02-09T16:02:48.311Z,2.41
2018-02-09T16:05:15.872Z,2.28
2018-02-09T16:07:43.399Z,2.25
2018-02-09T16:10:10.983Z,2.24
2018-02-09T16:12:38.646Z,2.27
2018-02-09T16:15:06.207Z,2.21
2018-02-09T16:17:33.768Z,2.38
2018-02-09T16:20:01.332Z,2.20
2018-02-09T16:22:28.906Z,2.08
2018-02-09T16:24:56.569Z,2.21
2018-02-09T16:27:24.217Z,2.22
2018-02-09T16:29:51.873Z,2.22
2018-02-09T16:32:19.486Z,2.26
2018-02-09T16:34:47.306Z,2.19
2018-02-09T16:37:14.893Z,2.14
2018-02-09T16:39:42.524Z,2.32
2018-02-09T16:42:10.146Z,2.31
2018-02-09T16:44:37.851Z,2.37
2018-02-09T16:47:05.537Z,2.22
2018-02-09T16:49:33.369Z,2.41
2018-02-09T16:52:01.041Z,2.28
2018-02-09T16:54:28.618Z,2.28
2018-02-09T16:56:56.311Z,2.25
2018-02-09T16:59:23.977Z,2.08
2018-02-09T17:01:51.701Z,2.04
2018-02-09T17:04:19.467Z,1.89
2018-02-09T17:06:47.091Z,1.87
2018-02-09T17:09:14.877Z,2.02
2018-02-09T17:11:42.415Z,2.13
2018-02-09T17:14:09.989Z,2.05
2018-02-09T17:16:37.759Z,2.11
2018-02-09T17:19:05.359Z,2.04
2018-02-09T17:21:32.985Z,2.07
2018-02-09T17:24:00.768Z,2.00
2018-02-09T17:26:28.351Z,2.06
2018-02-09T17:28:55.938Z,2.08
2018-02-09T17:31:23.628Z,1.94
2018-02-09T17:33:51.293Z,2.01
2018-02-09T17:36:18.900Z,2.03
2018-02-09T17:38:46.505Z,2.03
2018-02-09T17:41:14.091Z,1.95
2018-02-09T17:43:41.661Z,1.84
2018-02-09T17:46:09.392Z,2.03
2018-02-09T17:48:36.956Z,2.11
2018-02-09T17:51:04.481Z,2.01
2018-02-09T17:53:32.123Z,2.06
2018-02-09T17:55:59.692Z,1.93
2018-02-09T17:58:27.255Z,1.82
2018-02-09T18:00:54.802Z,1.94
2018-02-09T18:03:22.487Z,2.02
2018-02-09T18:05:50.076Z,2.00
2018-02-09T18:08:17.751Z,1.87
2018-02-09T18:10:45.301Z,1.69
2018-02-09T18:13:13.066Z,1.80
2018-02-09T18:15:40.794Z,1.91
2018-02-09T18:18:08.422Z,1.89
2018-02-09T18:20:35.992Z,1.75
2018-02-09T18:23:03.595Z,1.73
2018-02-09T18:25:31.177Z,1.84
2018-02-09T18:27:58.753Z,1.87
2018-02-09T18:30:26.404Z,1.88
2018-02-09T18:32:54.027Z,1.74
2018-02-09T18:35:21.663Z,1.77
2018-02-09T18:37:49.209Z,1.80
2018-02-09T18:40:16.782Z,1.99
2018-02-09T18:42:44.488Z,2.18
2018-02-09T18:45:12.056Z,2.01
2018-02-09T18:47:39.709Z,1.82
2018-02-09T18:50:07.370Z,1.69
2018-02-09T18:52:34.951Z,1.95
2018-02-09T18:55:02.546Z,1.86
2018-02-09T18:57:30.211Z,1.75
2018-02-09T18:59:57.899Z,1.78
2018-02-09T19:02:25.495Z,1.65
2018-02-09T19:04:53.107Z,1.58
2018-02-09T19:07:20.648Z,1.59
2018-02-09T19:09:48.209Z,1.72
2018-02-09T19:12:15.796Z,1.93
2018-02-09T19:14:43.410Z,1.94
2018-02-09T19:17:11.078Z,1.80
2018-02-09T19:19:38.647Z,1.70
2018-02-09T19:22:06.282Z,1.80
2018-02-09T19:24:33.871Z,1.81
2018-02-09T19:27:01.472Z,1.76
2018-02-09T19:29:29.026Z,1.76
2018-02-09T19:31:56.687Z,1.91
2018-02-09T19:34:24.263Z,1.79
2018-02-09T19:36:51.773Z,1.74
2018-02-09T19:39:19.361Z,1.94
2018-02-09T19:41:46.925Z,1.95
2018-02-09T19:44:14.498Z,1.97
2018-02-09T19:46:42.163Z,1.71
2018-02-09T19:49:09.822Z,1.73
2018-02-09T19:51:37.540Z,1.75
2018-02-09T19:54:05.138Z,1.49
2018-02-09T19:56:32.891Z,1.48
2018-02-09T19:59:00.423Z,1.59
2018-02-09T20:01:27.967Z,1.51
2018-02-09T20:03:55.511Z,1.65
2018-02-09T20:06:23.119Z,1.50
2018-02-09T20:08:50.702Z,1.23
2018-02-09T20:11:18.274Z,1.14
2018-02-09T20:13:45.976Z,1.13
2018-02-09T20:16:13.592Z,1.18
2018-02-09T20:18:41.139Z,1.21
2018-02-09T20:21:08.672Z,1.22
2018-02-09T20:23:36.367Z,1.20
2018-02-09T20:26:04.096Z,1.08
2018-02-09T20:28:31.904Z,1.09
2018-02-09T20:30:59.558Z,1.18
2018-02-09T20:33:27.164Z,1.32
2018-02-09T20:35:54.736Z,1.25
2018-02-09T20:38:22.329Z,1.29
2018-02-09T20:40:49.998Z,0.90
2018-02-09T20:43:17.661Z,0.71
2018-02-09T20:45:45.266Z,0.66
2018-02-09T20:48:12.843Z,0.68
2018-02-09T20:50:40.394Z,0.80
2018-02-09T20:53:07.941Z,0.80
2018-02-09T20:55:35.461Z,0.66
2018-02-09T20:58:03.040Z,0.63
2018-02-09T21:00:30.623Z,0.50
2018-02-09T21:02:58.187Z,0.77
2018-02-09T21:05:25.796Z,0.82
2018-02-09T21:07:53.328Z,0.76
2018-02-09T21:10:20.891Z,0.64
2018-02-09T21:12:48.426Z,0.59
2018-02-09T21:15:15.978Z,0.74
2018-02-09T21:17:43.592Z,0.82
2018-02-09T21:20:11.128Z,0.92
2018-02-09T21:22:38.812Z,0.83
2018-02-09T21:25:06.452Z,0.85
2018-02-09T21:27:34.062Z,0.71
2018-02-09T21:30:01.635Z,0.74
2018-02-09T21:32:29.184Z,0.68
2018-02-09T21:34:56.920Z,0.90
2018-02-09T21:37:24.474Z,0.88
2018-02-09T21:39:52.042Z,0.69
2018-02-09T21:42:19.609Z,0.76
2018-02-09T21:44:47.146Z,0.92
2018-02-09T21:47:14.685Z,0.91
2018-02-09T21:49:42.224Z,0.85
2018-02-09T21:52:09.823Z,0.94
2018-02-09T21:54:37.343Z,1.04
2018-02-09T21:57:04.896Z,1.01
2018-02-09T21:59:32.409Z,0.85
2018-02-09T22:01:59.971Z,0.88
2018-02-09T22:04:27.521Z,0.73
2018-02-09T22:06:55.172Z,0.60
2018-02-09T22:09:22.751Z,0.84
2018-02-09T22:11:50.312Z,0.85
2018-02-09T22:14:17.980Z,0.87
2018-02-09T22:16:45.520Z,1.08
2018-02-09T22:19:13.094Z,1.10
2018-02-09T22:21:40.677Z,1.27
2018-02-09T22:24:08.256Z,1.23
2018-02-09T22:26:35.811Z,1.12
2018-02-09T22:29:03.341Z,1.19
2018-02-09T22:31:30.868Z,1.24
2018-02-09T22:33:58.403Z,1.22
2018-02-09T22:36:25.945Z,1.12
2018-02-09T22:38:53.518Z,1.22
2018-02-09T22:41:21.047Z,1.23
2018-02-09T22:43:48.610Z,0.90
2018-02-09T22:46:16.168Z,0.93
2018-02-09T22:48:43.742Z,0.93
2018-02-09T22:51:11.268Z,0.68
2018-02-09T22:53:38.812Z,0.68
2018-02-09T22:56:06.382Z,0.87
2018-02-09T22:58:33.947Z,0.92
2018-02-09T23:01:01.509Z,0.76
2018-02-09T23:03:29.032Z,0.94
2018-02-09T23:05:56.571Z,0.96
2018-02-09T23:08:24.125Z,0.92
2018-02-09T23:10:51.697Z,0.80
2018-02-09T23:13:19.253Z,0.83
2018-02-09T23:15:46.959Z,0.67
2018-02-09T23:18:14.575Z,0.41
2018-02-09T23:20:42.102Z,0.28
2018-02-09T23:23:09.629Z,0.20
2018-02-09T23:25:37.177Z,0.21
2018-02-09T23:28:04.768Z,0.33
2018-02-09T23:30:32.286Z,0.29
2018-02-09T23:32:59.795Z,0.55
2018-02-09T23:35:27.326Z,0.49
2018-02-09T23:37:54.892Z,0.46
2018-02-09T23:40:22.604Z,0.43
2018-02-09T23:42:50.163Z,0.43
2018-02-09T23:45:17.766Z,0.45
2018-02-09T23:47:45.340Z,0.47
2018-02-09T23:50:12.890Z,0.35
2018-02-09T23:52:40.405Z,0.45
2018-02-09T23:55:07.947Z,0.56
2018-02-09T23:57:35.471Z,0.51
